createdAt,value
2023-05-14T00:00:42.025Z,101766.06
2023-05-14T00:03:09.336Z,101760.91
2023-05-14T00:05:36.433Z,101762.88
2023-05-14T00:08:03.596Z,101755.09
2023-05-14T00:10:30.611Z,101758.03
2023-05-14T00:12:57.682Z,101766.19
2023-05-14T00:15:24.837Z,101762.94
2023-05-14T00:17:51.834Z,101762.22
2023-05-14T00:20:18.892Z,101765.03
2023-05-14T00:22:45.865Z,101759.94
2023-05-14T00:25:12.945Z,101756.63
2023-05-14T00:27:40.094Z,101755.88
2023-05-14T00:30:07.840Z,101756.16
2023-05-14T00:32:35.561Z,101754.50
2023-05-14T00:35:04.324Z,101761.75
2023-05-14T00:37:31.610Z,101760.19
2023-05-14T00:39:58.737Z,101753.25
2023-05-14T00:42:27.195Z,101751.59
2023-05-14T00:44:54.261Z,101749.97
2023-05-14T00:47:21.434Z,101749.16
2023-05-14T00:49:48.502Z,101745.75
2023-05-14T00:52:16.688Z,101737.94
2023-05-14T00:54:48.065Z,101734.56
2023-05-14T00:57:15.185Z,101732.00
2023-05-14T00:59:42.853Z,101734.84
2023-05-14T01:02:11.321Z,101735.00
2023-05-14T01:04:39.729Z,101731.53
2023-05-14T01:07:30.610Z,101731.66
2023-05-14T01:10:24.048Z,101744.19
2023-05-14T01:13:21.358Z,101735.50
2023-05-14T01:15:49.753Z,101736.53
2023-05-14T01:18:19.588Z,101737.44
2023-05-14T01:20:51.502Z,101735.75
2023-05-14T01:23:18.581Z,101735.06
2023-05-14T01:25:45.705Z,101733.31
2023-05-14T01:28:19.166Z,101743.94
2023-05-14T01:31:06.829Z,101739.59
2023-05-14T01:33:36.182Z,101731.78
2023-05-14T01:36:04.196Z,101731.84
2023-05-14T01:38:34.166Z,101732.81
2023-05-14T01:41:03.130Z,101725.88
2023-05-14T01:43:31.820Z,101729.53
2023-05-14T01:45:58.903Z,101725.25
2023-05-14T01:48:25.935Z,101735.91
2023-05-14T01:50:53.124Z,101734.22
2023-05-14T01:53:20.107Z,101737.97
2023-05-14T01:55:47.177Z,101732.78
2023-05-14T01:58:14.942Z,101728.41
2023-05-14T02:00:41.909Z,101731.97
2023-05-14T02:03:09.013Z,101724.16
2023-05-14T02:05:36.237Z,101723.34
2023-05-14T02:08:03.376Z,101724.31
2023-05-14T02:10:30.444Z,101719.09
2023-05-14T02:12:57.529Z,101717.34
2023-05-14T02:15:24.625Z,101717.41
2023-05-14T02:17:51.901Z,101720.94
2023-05-14T02:20:19.209Z,101716.56
2023-05-14T02:22:46.423Z,101715.72
2023-05-14T02:25:13.444Z,101718.56
2023-05-14T02:27:40.483Z,101723.13
2023-05-14T02:30:08.428Z,101720.63
2023-05-14T02:32:35.677Z,101719.97
2023-05-14T02:35:03.305Z,101709.44
2023-05-14T02:37:30.574Z,101712.09
2023-05-14T02:39:58.125Z,101705.97
2023-05-14T02:42:25.076Z,101702.47
2023-05-14T02:44:52.376Z,101701.69
2023-05-14T02:47:19.529Z,101702.59
2023-05-14T02:49:46.548Z,101712.38
2023-05-14T02:52:13.538Z,101713.38
2023-05-14T02:54:40.809Z,101708.22
2023-05-14T02:57:07.862Z,101712.66
2023-05-14T02:59:35.276Z,101707.47
2023-05-14T03:02:02.850Z,101710.22
2023-05-14T03:04:30.518Z,101700.66
2023-05-14T03:06:57.536Z,101708.69
2023-05-14T03:09:24.462Z,101699.09
2023-05-14T03:11:51.504Z,101698.28
2023-05-14T03:14:18.476Z,101692.25
2023-05-14T03:16:46.033Z,101687.09
2023-05-14T03:19:13.252Z,101686.34
2023-05-14T03:21:40.522Z,101685.53
2023-05-14T03:24:07.490Z,101692.72
2023-05-14T03:26:34.527Z,101694.56
2023-05-14T03:29:03.936Z,101690.28
2023-05-14T03:31:31.576Z,101680.75
2023-05-14T03:33:58.735Z,101682.59
2023-05-14T03:36:25.796Z,101683.53
2023-05-14T03:38:53.055Z,101681.00
2023-05-14T03:41:21.864Z,101688.91
2023-05-14T03:43:48.845Z,101677.59
2023-05-14T03:46:15.999Z,101678.50
2023-05-14T03:48:43.066Z,101681.13
2023-05-14T03:51:10.030Z,101677.63
2023-05-14T03:53:37.058Z,101679.38
2023-05-14T03:56:04.380Z,101673.31
2023-05-14T03:58:31.331Z,101671.56
2023-05-14T04:01:00.461Z,101675.09
2023-05-14T04:03:27.663Z,101672.47
2023-05-14T04:05:54.770Z,101673.41
2023-05-14T04:08:21.783Z,101673.41
2023-05-14T04:10:50.453Z,101678.63
2023-05-14T04:13:17.521Z,101674.25
2023-05-14T04:15:44.656Z,101682.19
2023-05-14T04:18:11.881Z,101678.69
2023-05-14T04:20:39.005Z,101679.53
2023-05-14T04:23:06.432Z,101686.50
2023-05-14T04:25:33.550Z,101684.63
2023-05-14T04:28:00.595Z,101687.19
2023-05-14T04:30:27.584Z,101692.31
2023-05-14T04:32:54.614Z,101688.69
2023-05-14T04:35:24.132Z,101685.00
2023-05-14T04:37:52.075Z,101682.19
2023-05-14T04:40:19.090Z,101686.44
2023-05-14T04:42:46.078Z,101691.56
2023-05-14T04:45:13.578Z,101688.72
2023-05-14T04:47:41.712Z,101685.72
2023-05-14T04:50:09.796Z,101684.88
2023-05-14T04:52:36.784Z,101685.31
2023-05-14T04:55:04.110Z,101681.63
2023-05-14T04:57:31.154Z,101678.75
2023-05-14T04:59:58.125Z,101678.13
2023-05-14T05:02:25.166Z,101678.69
2023-05-14T05:04:52.428Z,101677.50
2023-05-14T05:07:19.471Z,101676.94
2023-05-14T05:09:46.806Z,101678.66
2023-05-14T05:12:15.255Z,101673.69
2023-05-14T05:14:42.410Z,101678.91
2023-05-14T05:17:09.465Z,101678.19
2023-05-14T05:19:43.892Z,101680.63
2023-05-14T05:22:11.780Z,101677.53
2023-05-14T05:24:38.868Z,101677.03
2023-05-14T05:27:06.204Z,101681.97
2023-05-14T05:29:35.081Z,101674.53
2023-05-14T05:32:02.271Z,101681.59
2023-05-14T05:34:29.321Z,101674.03
2023-05-14T05:36:56.297Z,101679.09
2023-05-14T05:39:23.251Z,101673.25
2023-05-14T05:41:50.297Z,101673.25
2023-05-14T05:44:17.272Z,101679.75
2023-05-14T05:46:44.307Z,101675.69
2023-05-14T05:49:11.339Z,101673.09
2023-05-14T05:51:38.420Z,101674.63
2023-05-14T05:54:05.488Z,101667.56
2023-05-14T05:56:32.461Z,101671.09
2023-05-14T05:58:59.512Z,101673.63
2023-05-14T06:01:26.846Z,101673.06
2023-05-14T06:03:53.859Z,101685.28
2023-05-14T06:06:21.840Z,101687.06
2023-05-14T06:08:49.103Z,101680.94
2023-05-14T06:11:17.014Z,101691.34
2023-05-14T06:13:44.248Z,101693.78
2023-05-14T06:16:12.492Z,101692.88
2023-05-14T06:18:39.485Z,101696.75
2023-05-14T06:21:06.541Z,101700.75
2023-05-14T06:23:33.499Z,101697.63
2023-05-14T06:26:00.564Z,101695.03
2023-05-14T06:28:27.589Z,101697.53
2023-05-14T06:30:54.570Z,101699.00
2023-05-14T06:33:29.526Z,101701.63
2023-05-14T06:35:59.484Z,101701.84
2023-05-14T06:38:26.925Z,101706.31
2023-05-14T06:40:53.928Z,101693.81
2023-05-14T06:43:21.728Z,101702.72
2023-05-14T06:45:50.246Z,101698.16
2023-05-14T06:48:18.906Z,101697.84
2023-05-14T06:50:49.871Z,101699.03
2023-05-14T06:53:17.061Z,101696.84
2023-05-14T06:55:44.136Z,101690.47
2023-05-14T06:58:11.176Z,101691.09
2023-05-14T07:00:38.175Z,101691.50
2023-05-14T07:03:05.383Z,101692.06
2023-05-14T07:05:32.489Z,101697.19
2023-05-14T07:07:59.720Z,101680.88
2023-05-14T07:10:26.777Z,101684.88
2023-05-14T07:12:53.838Z,101686.16
2023-05-14T07:15:21.201Z,101684.16
2023-05-14T07:17:49.080Z,101684.09
2023-05-14T07:20:16.177Z,101683.16
2023-05-14T07:22:43.210Z,101682.03
2023-05-14T07:25:10.702Z,101676.41
2023-05-14T07:27:37.762Z,101688.72
2023-05-14T07:30:05.501Z,101682.19
2023-05-14T07:32:32.549Z,101686.22
2023-05-14T07:34:59.758Z,101684.16
2023-05-14T07:37:26.815Z,101680.13
2023-05-14T07:39:53.855Z,101682.66
2023-05-14T07:42:34.493Z,101675.31
2023-05-14T07:45:03.027Z,101683.97
2023-05-14T07:47:30.051Z,101681.28
2023-05-14T07:49:58.124Z,101679.34
2023-05-14T07:52:25.230Z,101675.53
2023-05-14T07:54:52.536Z,101672.06
2023-05-14T07:57:20.715Z,101673.94
2023-05-14T07:59:48.537Z,101678.31
2023-05-14T08:02:17.133Z,101678.16
2023-05-14T08:04:45.158Z,101672.47
2023-05-14T08:07:12.155Z,101667.38
2023-05-14T08:09:39.355Z,101678.19
2023-05-14T08:12:07.510Z,101673.00
2023-05-14T08:14:34.627Z,101674.13
2023-05-14T08:17:01.622Z,101665.84
2023-05-14T08:19:28.614Z,101673.16
2023-05-14T08:21:55.685Z,101668.31
2023-05-14T08:24:22.855Z,101670.41
2023-05-14T08:26:49.900Z,101667.47
2023-05-14T08:29:17.024Z,101672.25
2023-05-14T08:31:44.375Z,101676.72
2023-05-14T08:34:11.401Z,101678.38
2023-05-14T08:36:39.243Z,101680.63
2023-05-14T08:39:07.783Z,101676.53
2023-05-14T08:41:35.578Z,101670.69
2023-05-14T08:44:14.306Z,101664.09
2023-05-14T08:46:41.840Z,101660.75
2023-05-14T08:49:28.632Z,101665.56
2023-05-14T08:51:56.455Z,101660.56
2023-05-14T08:54:24.706Z,101653.84
2023-05-14T08:56:52.637Z,101658.44
2023-05-14T08:59:20.508Z,101658.59
2023-05-14T09:01:51.758Z,101658.00
2023-05-14T09:04:24.610Z,101659.88
2023-05-14T09:06:54.370Z,101648.50
2023-05-14T09:09:22.907Z,101654.94
2023-05-14T09:11:52.687Z,101655.84
2023-05-14T09:14:20.939Z,101657.91
2023-05-14T09:16:50.595Z,101657.47
2023-05-14T09:19:19.488Z,101653.72
2023-05-14T09:21:49.546Z,101653.25
2023-05-14T09:24:31.659Z,101639.28
2023-05-14T09:26:58.957Z,101644.91
2023-05-14T09:29:28.520Z,101639.84
2023-05-14T09:31:58.160Z,101637.56
2023-05-14T09:34:30.466Z,101639.66
2023-05-14T09:37:03.771Z,101627.56
2023-05-14T09:39:32.686Z,101630.72
2023-05-14T09:41:59.857Z,101633.13
2023-05-14T09:44:27.502Z,101630.72
2023-05-14T09:46:55.467Z,101625.72
2023-05-14T09:49:23.022Z,101624.34
2023-05-14T09:51:51.125Z,101629.22
2023-05-14T09:54:18.334Z,101620.19
2023-05-14T09:56:45.386Z,101623.72
2023-05-14T09:59:12.792Z,101620.19
2023-05-14T10:01:43.314Z,101622.47
2023-05-14T10:04:11.985Z,101617.84
2023-05-14T10:06:42.183Z,101616.84
2023-05-14T10:09:13.965Z,101617.81
2023-05-14T10:11:45.278Z,101613.84
2023-05-14T10:14:29.363Z,101611.16
2023-05-14T10:16:59.584Z,101610.41
2023-05-14T10:19:28.141Z,101610.25
2023-05-14T10:22:05.601Z,101613.28
2023-05-14T10:24:34.251Z,101605.16
2023-05-14T10:27:02.200Z,101601.09
2023-05-14T10:29:38.314Z,101603.50
2023-05-14T10:32:08.551Z,101590.69
2023-05-14T10:34:43.817Z,101591.19
2023-05-14T10:37:13.710Z,101582.44
2023-05-14T10:39:49.970Z,101591.56
2023-05-14T10:42:24.188Z,101581.69
2023-05-14T10:44:58.147Z,101589.53
2023-05-14T10:47:29.716Z,101594.38
2023-05-14T10:49:59.927Z,101583.50
2023-05-14T10:52:27.040Z,101575.50
2023-05-14T10:55:03.648Z,101582.03
2023-05-14T10:57:32.697Z,101570.53
2023-05-14T11:00:01.411Z,101581.09
2023-05-14T11:02:36.863Z,101575.03
2023-05-14T11:05:10.572Z,101574.66
2023-05-14T11:07:40.755Z,101571.56
2023-05-14T11:10:13.613Z,101565.25
2023-05-14T11:12:43.707Z,101562.59
2023-05-14T11:15:14.164Z,101569.53
2023-05-14T11:17:44.194Z,101563.13
2023-05-14T11:20:12.517Z,101558.19
2023-05-14T11:22:42.155Z,101557.19
2023-05-14T11:25:11.188Z,101547.69
2023-05-14T11:27:39.431Z,101552.94
2023-05-14T11:30:18.531Z,101542.16
2023-05-14T11:32:48.498Z,101543.38
2023-05-14T11:35:16.986Z,101538.53
2023-05-14T11:37:52.344Z,101534.84
2023-05-14T11:40:19.799Z,101548.06
2023-05-14T11:42:46.881Z,101540.72
2023-05-14T11:45:25.599Z,101535.06
2023-05-14T11:47:54.756Z,101534.66
2023-05-14T11:50:25.215Z,101532.84
2023-05-14T11:52:57.297Z,101529.44
2023-05-14T11:55:24.792Z,101526.59
2023-05-14T11:57:52.100Z,101525.53
2023-05-14T12:00:22.114Z,101524.63
2023-05-14T12:02:50.028Z,101525.22
2023-05-14T12:05:18.588Z,101516.78
2023-05-14T12:07:46.285Z,101510.06
2023-05-14T12:10:13.889Z,101505.03
2023-05-14T12:12:40.953Z,101509.31
2023-05-14T12:15:13.588Z,101514.94
2023-05-14T12:17:41.492Z,101509.56
2023-05-14T12:20:11.020Z,101507.53
2023-05-14T12:22:38.727Z,101515.06
2023-05-14T12:25:13.632Z,101503.44
2023-05-14T12:27:41.431Z,101501.00
2023-05-14T12:32:42.734Z,101495.91
2023-05-14T12:35:10.128Z,101496.84
2023-05-14T12:37:39.346Z,101485.03
2023-05-14T12:40:09.374Z,101484.28
2023-05-14T12:42:36.877Z,101478.88
2023-05-14T12:45:07.263Z,101485.31
2023-05-14T12:47:34.872Z,101478.47
2023-05-14T12:50:02.464Z,101477.75
2023-05-14T12:55:00.151Z,101469.88
2023-05-14T12:57:30.584Z,101461.72
2023-05-14T12:59:57.957Z,101460.63
2023-05-14T13:02:24.992Z,101466.16
2023-05-14T13:04:52.049Z,101466.22
2023-05-14T13:07:19.079Z,101462.25
2023-05-14T13:09:46.006Z,101463.72
2023-05-14T13:12:13.091Z,101462.38
2023-05-14T13:14:40.180Z,101455.09
2023-05-14T13:17:08.180Z,101455.38
2023-05-14T13:19:35.666Z,101457.44
2023-05-14T13:22:02.673Z,101450.13
2023-05-14T13:24:29.670Z,101455.47
2023-05-14T13:26:56.743Z,101445.63
2023-05-14T13:29:24.777Z,101450.19
2023-05-14T13:31:53.021Z,101447.00
2023-05-14T13:34:20.007Z,101445.66
2023-05-14T13:36:47.941Z,101441.38
2023-05-14T13:39:15.444Z,101445.41
2023-05-14T13:41:42.435Z,101444.94
2023-05-14T13:44:09.455Z,101438.16
2023-05-14T13:46:36.611Z,101429.56
2023-05-14T13:49:03.671Z,101429.38
2023-05-14T13:51:31.245Z,101432.56
2023-05-14T13:53:58.298Z,101425.56
2023-05-14T13:56:25.950Z,101423.81
2023-05-14T13:58:53.095Z,101422.75
2023-05-14T14:01:20.220Z,101418.72
2023-05-14T14:03:47.346Z,101413.66
2023-05-14T14:06:14.595Z,101421.88
2023-05-14T14:08:41.718Z,101420.59
2023-05-14T14:11:08.822Z,101417.09
2023-05-14T14:13:36.830Z,101407.72
2023-05-14T14:16:04.538Z,101410.41
2023-05-14T14:18:32.120Z,101407.72
2023-05-14T14:20:59.176Z,101402.97
2023-05-14T14:23:26.202Z,101403.56
2023-05-14T14:25:53.167Z,101406.81
2023-05-14T14:28:20.273Z,101397.00
2023-05-14T14:30:47.620Z,101401.41
2023-05-14T14:33:14.629Z,101402.78
2023-05-14T14:35:41.649Z,101406.78
2023-05-14T14:38:08.782Z,101402.34
2023-05-14T14:40:35.931Z,101406.47
2023-05-14T14:43:03.030Z,101397.53
2023-05-14T14:45:30.092Z,101400.09
2023-05-14T14:48:27.487Z,101400.44
2023-05-14T14:50:55.663Z,101396.66
2023-05-14T14:53:24.362Z,101405.13
2023-05-14T14:55:52.321Z,101409.94
2023-05-14T14:58:20.954Z,101409.34
2023-05-14T15:00:51.240Z,101409.81
2023-05-14T15:03:19.272Z,101397.69
2023-05-14T15:05:46.416Z,101394.84
2023-05-14T15:08:13.847Z,101397.50
2023-05-14T15:10:41.701Z,101392.25
2023-05-14T15:13:11.418Z,101389.56
2023-05-14T15:15:38.673Z,101391.16
2023-05-14T15:18:05.956Z,101389.22
2023-05-14T15:20:33.066Z,101386.34
2023-05-14T15:23:00.181Z,101381.94
2023-05-14T15:25:27.396Z,101387.31
2023-05-14T15:27:54.854Z,101380.94
2023-05-14T15:30:21.833Z,101380.22
2023-05-14T15:32:49.371Z,101370.91
2023-05-14T15:35:16.429Z,101375.34
2023-05-14T15:37:44.812Z,101373.25
2023-05-14T15:40:12.493Z,101369.84
2023-05-14T15:42:42.579Z,101368.16
2023-05-14T15:45:12.349Z,101370.41
2023-05-14T15:47:40.740Z,101370.66
2023-05-14T15:50:09.063Z,101370.16
2023-05-14T15:52:36.898Z,101363.22
2023-05-14T15:55:06.276Z,101366.56
2023-05-14T15:57:34.405Z,101370.59
2023-05-14T16:00:03.035Z,101366.44
2023-05-14T16:02:33.257Z,101363.50
2023-05-14T16:05:01.516Z,101366.31
2023-05-14T16:07:28.577Z,101373.28
2023-05-14T16:09:56.941Z,101365.16
2023-05-14T16:12:23.940Z,101365.41
2023-05-14T16:14:50.984Z,101369.63
2023-05-14T16:17:18.185Z,101363.22
2023-05-14T16:19:45.136Z,101368.13
2023-05-14T16:22:13.305Z,101369.41
2023-05-14T16:24:40.313Z,101370.53
2023-05-14T16:27:07.323Z,101371.56
2023-05-14T16:29:34.293Z,101373.31
2023-05-14T16:32:01.878Z,101371.63
2023-05-14T16:34:28.954Z,101369.69
2023-05-14T16:36:56.036Z,101371.94
2023-05-14T16:39:22.961Z,101371.50
2023-05-14T16:41:49.875Z,101365.19
2023-05-14T16:44:16.815Z,101369.28
2023-05-14T16:46:43.912Z,101367.47
2023-05-14T16:49:10.920Z,101369.06
2023-05-14T16:51:42.477Z,101363.28
2023-05-14T16:54:09.907Z,101365.63
2023-05-14T16:56:37.241Z,101360.66
2023-05-14T16:59:04.609Z,101364.63
2023-05-14T17:01:32.127Z,101370.06
2023-05-14T17:04:00.571Z,101364.94
2023-05-14T17:06:27.592Z,101365.91
2023-05-14T17:08:54.492Z,101361.31
2023-05-14T17:11:21.626Z,101359.25
2023-05-14T17:13:48.532Z,101354.88
2023-05-14T17:16:15.692Z,101356.25
2023-05-14T17:18:42.880Z,101356.66
2023-05-14T17:21:09.955Z,101363.28
2023-05-14T17:23:37.022Z,101362.75
2023-05-14T17:26:04.018Z,101361.34
2023-05-14T17:28:31.021Z,101364.72
2023-05-14T17:30:58.056Z,101365.34
2023-05-14T17:33:25.100Z,101360.47
2023-05-14T17:35:52.183Z,101369.81
2023-05-14T17:38:19.368Z,101362.16
2023-05-14T17:40:46.326Z,101358.97
2023-05-14T17:43:14.389Z,101367.44
2023-05-14T17:45:53.309Z,101370.59
2023-05-14T17:48:22.110Z,101370.13
2023-05-14T17:50:49.243Z,101368.81
2023-05-14T17:53:16.131Z,101367.47
2023-05-14T17:55:43.769Z,101367.84
2023-05-14T17:58:13.414Z,101378.84
2023-05-14T18:00:40.856Z,101379.34
2023-05-14T18:03:08.427Z,101372.63
2023-05-14T18:05:35.604Z,101382.78
2023-05-14T18:08:02.651Z,101376.09
2023-05-14T18:10:29.759Z,101374.75
2023-05-14T18:12:56.957Z,101370.63
2023-05-14T18:15:25.708Z,101376.31
2023-05-14T18:17:53.187Z,101374.78
2023-05-14T18:20:20.603Z,101378.78
2023-05-14T18:22:48.259Z,101370.28
2023-05-14T18:25:15.628Z,101378.75
2023-05-14T18:27:44.455Z,101383.53
2023-05-14T18:30:14.406Z,101377.66
2023-05-14T18:32:44.133Z,101375.38
2023-05-14T18:35:13.143Z,101380.03
2023-05-14T18:37:41.018Z,101382.22
2023-05-14T18:40:08.969Z,101384.47
2023-05-14T18:42:36.001Z,101394.72
2023-05-14T18:45:04.166Z,101398.81
2023-05-14T18:47:32.680Z,101400.31
2023-05-14T18:50:01.816Z,101385.69
2023-05-14T18:52:32.335Z,101383.44
2023-05-14T18:54:59.581Z,101395.47
2023-05-14T18:57:32.161Z,101395.06
2023-05-14T19:00:03.895Z,101395.56
2023-05-14T19:02:31.169Z,101396.84
2023-05-14T19:04:58.287Z,101384.84
2023-05-14T19:07:25.900Z,101395.09
2023-05-14T19:09:53.051Z,101390.34
2023-05-14T19:12:20.100Z,101389.81
2023-05-14T19:14:47.085Z,101398.06
2023-05-14T19:17:14.204Z,101393.06
2023-05-14T19:19:41.321Z,101399.69
2023-05-14T19:22:08.370Z,101399.97
2023-05-14T19:24:36.156Z,101402.88
2023-05-14T19:27:04.440Z,101395.28
2023-05-14T19:29:34.185Z,101403.59
2023-05-14T19:32:04.720Z,101403.84
2023-05-14T19:34:34.596Z,101406.88
2023-05-14T19:37:04.682Z,101414.25
2023-05-14T19:39:31.693Z,101412.91
2023-05-14T19:41:58.690Z,101412.19
2023-05-14T19:44:25.787Z,101415.19
2023-05-14T19:46:53.119Z,101417.34
2023-05-14T19:49:20.190Z,101405.97
2023-05-14T19:51:47.203Z,101413.38
2023-05-14T19:54:14.763Z,101409.31
2023-05-14T19:56:42.085Z,101428.13
2023-05-14T19:59:09.153Z,101424.75
2023-05-14T20:01:36.345Z,101422.41
2023-05-14T20:04:03.739Z,101427.16
2023-05-14T20:06:30.797Z,101425.63
2023-05-14T20:08:57.863Z,101427.63
2023-05-14T20:11:24.902Z,101434.09
2023-05-14T20:13:51.842Z,101437.06
2023-05-14T20:16:18.997Z,101433.91
2023-05-14T20:18:46.111Z,101435.03
2023-05-14T20:21:13.143Z,101428.19
2023-05-14T20:23:40.843Z,101431.91
2023-05-14T20:26:07.897Z,101429.53
2023-05-14T20:28:35.804Z,101430.75
2023-05-14T20:31:04.007Z,101419.66
2023-05-14T20:33:31.142Z,101430.41
2023-05-14T20:35:58.292Z,101432.50
2023-05-14T20:38:29.167Z,101431.69
2023-05-14T20:40:56.172Z,101431.94
2023-05-14T20:43:23.479Z,101439.22
2023-05-14T20:45:50.466Z,101438.63
2023-05-14T20:48:17.751Z,101448.59
2023-05-14T20:50:44.804Z,101435.50
2023-05-14T20:53:11.771Z,101439.41
2023-05-14T20:55:39.441Z,101440.47
2023-05-14T20:58:06.563Z,101426.50
2023-05-14T21:00:33.712Z,101439.09
2023-05-14T21:03:01.016Z,101431.28
2023-05-14T21:05:28.243Z,101435.91
2023-05-14T21:07:55.332Z,101425.59
2023-05-14T21:10:22.678Z,101431.97
2023-05-14T21:12:49.955Z,101426.97
2023-05-14T21:15:17.102Z,101428.94
2023-05-14T21:17:44.112Z,101432.63
2023-05-14T21:20:13.403Z,101425.66
2023-05-14T21:22:40.400Z,101427.63
2023-05-14T21:25:07.980Z,101419.91
2023-05-14T21:27:34.963Z,101419.28
2023-05-14T21:30:02.178Z,101418.53
2023-05-14T21:32:29.171Z,101422.19
2023-05-14T21:34:56.256Z,101419.75
2023-05-14T21:37:23.436Z,101428.72
2023-05-14T21:39:50.851Z,101420.97
2023-05-14T21:42:18.903Z,101422.06
2023-05-14T21:44:45.831Z,101418.66
2023-05-14T21:47:12.896Z,101414.47
2023-05-14T21:49:39.866Z,101419.16
2023-05-14T21:52:07.438Z,101416.75
2023-05-14T21:54:34.371Z,101412.53
2023-05-14T21:57:01.632Z,101410.22
2023-05-14T21:59:29.349Z,101405.19
2023-05-14T22:02:06.950Z,101404.44
2023-05-14T22:04:35.250Z,101397.56
2023-05-14T22:07:03.310Z,101410.97
2023-05-14T22:09:30.514Z,101403.25
2023-05-14T22:11:58.354Z,101409.66
2023-05-14T22:14:27.252Z,101413.41
2023-05-14T22:16:54.485Z,101407.41
2023-05-14T22:19:21.545Z,101400.47
2023-05-14T22:21:48.487Z,101394.41
2023-05-14T22:24:15.430Z,101397.19
2023-05-14T22:26:42.429Z,101395.56
2023-05-14T22:29:09.385Z,101393.00
2023-05-14T22:31:38.617Z,101404.56
2023-05-14T22:34:08.166Z,101395.81
2023-05-14T22:36:35.246Z,101397.69
2023-05-14T22:39:02.334Z,101389.06
2023-05-14T22:41:29.435Z,101392.66
2023-05-14T22:43:56.416Z,101391.84
2023-05-14T22:46:23.485Z,101383.09
2023-05-14T22:48:50.380Z,101385.75
2023-05-14T22:51:17.872Z,101385.91
2023-05-14T22:53:45.481Z,101383.31
2023-05-14T22:56:12.618Z,101379.00
2023-05-14T22:58:39.547Z,101374.78
2023-05-14T23:01:06.575Z,101372.25
2023-05-14T23:03:33.512Z,101372.41
2023-05-14T23:06:00.473Z,101375.09
2023-05-14T23:08:27.488Z,101370.81
2023-05-14T23:10:54.625Z,101379.63
2023-05-14T23:13:22.680Z,101370.06
2023-05-14T23:15:49.772Z,101369.25
2023-05-14T23:18:16.786Z,101371.91
2023-05-14T23:20:43.877Z,101370.25
2023-05-14T23:23:11.253Z,101369.53
2023-05-14T23:25:38.298Z,101375.06
2023-05-14T23:28:05.372Z,101372.56
2023-05-14T23:30:32.581Z,101365.75
2023-05-14T23:32:59.626Z,101365.00
2023-05-14T23:35:26.991Z,101357.13
2023-05-14T23:37:55.288Z,101353.72
2023-05-14T23:40:22.321Z,101349.34
2023-05-14T23:42:49.320Z,101343.28
2023-05-14T23:45:16.598Z,101346.06
2023-05-14T23:47:43.660Z,101343.44
2023-05-14T23:50:10.889Z,101341.69
2023-05-14T23:52:38.022Z,101340.91
2023-05-14T23:55:05.582Z,101334.78
2023-05-14T23:57:32.688Z,101333.97
2023-05-14T23:59:59.656Z,101331.41
